EVERETT DAM ON PISCATAOUOG R: From 08/05/2019 17:00 to 08/20/2019 00:00

Date LAKE ELEVATION [FT] PRECIPITATION INCREMENT [IN] RESERVOIR RELEASES [CFS] TAILWATER STAGE [FT]
08/19/2019 15:00 -- 0.00 -- --
08/19/2019 14:00 340.58 0.00 -- 5.08
08/19/2019 13:00 340.58 0.00 -- 5.09
08/19/2019 12:00 340.61 0.00 -- 5.09
08/19/2019 11:00 340.58 0.00 -- --
08/19/2019 10:00 340.61 0.00 -- 5.09
08/19/2019 09:00 340.58 0.00 33.8 5.08
08/19/2019 08:00 340.61 0.00 33.8 5.08
08/19/2019 07:00 340.61 0.00 33.8 5.08
08/19/2019 06:00 340.58 0.00 34.7 5.09
08/19/2019 05:00 340.61 0.00 33.8 5.08
08/19/2019 04:00 340.58 0.00 33.8 5.08
08/19/2019 03:00 340.58 0.00 33.8 5.08
08/19/2019 02:00 340.58 0.00 32.9 5.07
08/19/2019 01:00 340.58 0.00 32.9 5.07
08/19/2019 00:00 340.58 0.00 32.0 5.06
08/18/2019 23:00 340.58 0.00 32.0 5.06
08/18/2019 22:00 340.58 0.00 32.0 5.06
08/18/2019 21:00 340.55 0.02 31.1 5.05
08/18/2019 20:00 340.55 0.15 31.1 5.05
08/18/2019 19:00 340.52 0.00 27.7 5.01
08/18/2019 18:00 340.52 0.00 27.7 5.01
08/18/2019 17:00 340.52 0.00 26.9 5.00
08/18/2019 16:00 340.49 0.00 26.1 4.99
08/18/2019 15:00 340.49 0.00 26.1 4.99
08/18/2019 14:00 340.49 0.00 25.3 4.98
08/18/2019 13:00 340.49 0.00 24.6 4.97
08/18/2019 12:00 340.46 0.00 23.8 4.96
08/18/2019 11:00 340.46 0.00 23.1 4.95
08/18/2019 10:00 340.46 0.00 22.3 4.94
08/18/2019 09:00 340.43 0.00 21.6 4.93
08/18/2019 08:00 340.43 0.00 20.2 4.91
08/18/2019 07:00 340.40 0.00 19.5 4.90
08/18/2019 06:00 340.40 0.00 18.1 4.88
08/18/2019 05:00 340.37 0.00 16.7 4.86
08/18/2019 04:00 340.37 0.00 15.4 4.84
08/18/2019 03:00 340.34 0.00 14.8 4.83
08/18/2019 02:00 340.31 0.00 13.6 4.81
08/18/2019 01:00 340.28 0.00 12.4 4.79
08/18/2019 00:00 340.25 0.00 11.1 4.76
08/17/2019 23:00 340.22 0.00 9.8 4.73
08/17/2019 22:00 340.16 0.00 8.2 4.69
08/17/2019 21:00 340.16 0.00 7.9 4.68
08/17/2019 20:00 340.13 0.00 7.6 4.67
08/17/2019 19:00 340.13 0.01 7.6 4.67
08/17/2019 18:00 340.13 0.46 7.3 4.66
08/17/2019 17:00 340.07 0.01 -- --
08/17/2019 16:00 340.07 0.00 7.3 4.66
08/17/2019 15:00 340.07 0.00 7.0 4.65
08/17/2019 14:00 340.07 0.00 7.0 4.65
08/17/2019 13:00 340.07 0.00 7.3 4.66
08/17/2019 12:00 340.07 0.00 7.3 4.66
08/17/2019 11:00 340.07 0.00 7.3 4.66
08/17/2019 10:00 340.07 0.00 7.3 4.66
08/17/2019 09:00 340.07 0.00 7.3 4.66
08/17/2019 08:00 340.07 0.00 7.3 4.66
08/17/2019 07:00 340.07 0.00 7.3 4.66
08/17/2019 06:00 340.07 0.00 7.3 4.66
08/17/2019 05:00 340.07 0.00 7.3 4.66
08/17/2019 04:00 340.07 0.00 7.6 4.67
08/17/2019 03:00 340.07 0.00 7.6 4.67
08/17/2019 02:00 340.07 0.00 7.6 4.67
08/17/2019 01:00 340.07 0.00 7.6 4.67
08/17/2019 00:00 340.07 0.00 7.6 4.67
08/16/2019 23:00 340.07 0.00 7.6 4.67
08/16/2019 22:00 340.07 0.00 7.6 4.67
08/16/2019 21:00 340.10 0.00 7.6 4.67
08/16/2019 20:00 340.10 0.00 7.6 4.67
08/16/2019 19:00 340.10 0.00 7.6 4.67
08/16/2019 18:00 340.10 0.00 7.6 4.67
08/16/2019 17:00 340.10 0.00 7.6 4.67
08/16/2019 16:00 340.10 0.00 7.6 4.67
08/16/2019 15:00 340.10 0.00 7.6 4.67
08/16/2019 14:00 340.10 0.00 7.6 4.67
08/16/2019 13:00 340.10 0.00 7.6 4.67
08/16/2019 12:00 340.10 0.00 7.6 4.67
08/16/2019 11:00 340.10 0.00 7.6 4.67
08/16/2019 10:00 340.10 0.00 7.9 4.68
08/16/2019 09:00 340.10 0.00 7.9 4.68
08/16/2019 08:00 340.10 0.00 7.9 4.68
08/16/2019 07:00 340.10 0.00 7.9 4.68
08/16/2019 06:00 340.10 0.00 7.9 4.68
08/16/2019 05:00 340.10 0.00 7.9 4.68
08/16/2019 04:00 340.10 0.00 7.9 4.68
08/16/2019 03:00 340.10 0.00 7.9 4.68
08/16/2019 02:00 340.10 0.00 7.9 4.68
08/16/2019 01:00 340.10 0.00 7.9 4.68
08/16/2019 00:00 340.10 0.00 7.9 4.68
08/15/2019 23:00 340.10 0.00 7.9 4.68
08/15/2019 22:00 340.10 0.00 7.9 4.68
08/15/2019 21:00 340.10 0.00 7.9 4.68
08/15/2019 20:00 340.10 0.00 7.9 4.68
08/15/2019 19:00 340.10 0.00 7.9 4.68
08/15/2019 18:00 340.10 0.00 7.9 4.68
08/15/2019 17:00 340.10 0.00 7.9 4.68
08/15/2019 16:00 340.10 0.00 7.9 4.68
08/15/2019 15:00 340.10 0.02 7.9 4.68
08/15/2019 14:00 340.10 0.02 7.9 4.68
08/15/2019 13:00 340.10 0.00 7.6 4.67
08/15/2019 12:00 340.10 0.00 7.6 4.67
08/15/2019 11:00 340.10 0.00 7.6 4.67
08/15/2019 10:00 340.10 0.00 7.6 4.67
08/15/2019 09:00 340.10 0.00 7.9 4.68
08/15/2019 08:00 340.10 0.00 7.9 4.68
08/15/2019 07:00 340.10 0.00 7.9 4.68
08/15/2019 06:00 340.10 0.00 7.9 4.68
08/15/2019 05:00 340.10 0.00 7.9 4.68
08/15/2019 04:00 340.10 0.00 7.9 4.68
08/15/2019 03:00 340.10 0.00 7.9 4.68
08/15/2019 02:00 340.10 0.00 8.2 4.69
08/15/2019 01:00 340.10 0.00 8.2 4.69
08/15/2019 00:00 340.10 0.00 7.9 4.68
08/14/2019 23:00 340.10 0.00 8.2 4.69
08/14/2019 22:00 340.10 0.00 8.2 4.69
08/14/2019 21:00 340.10 0.00 8.2 4.69
08/14/2019 20:00 340.13 0.00 8.2 4.69
08/14/2019 19:00 340.13 0.00 8.2 4.69
08/14/2019 18:00 340.13 0.00 8.2 4.69
08/14/2019 17:00 340.13 0.00 8.2 4.69
08/14/2019 16:00 340.13 0.00 8.2 4.69
08/14/2019 15:00 340.13 0.00 8.2 4.69
08/14/2019 14:00 340.13 0.00 8.2 4.69
08/14/2019 13:00 340.13 0.00 8.2 4.69
08/14/2019 12:00 340.13 0.00 8.2 4.69
08/14/2019 11:00 340.13 0.00 8.6 4.70
08/14/2019 10:00 340.13 0.00 8.6 4.70
08/14/2019 09:00 340.13 0.00 8.6 4.70
08/14/2019 08:00 340.13 0.00 8.6 4.70
08/14/2019 07:00 340.13 0.00 8.6 4.70
08/14/2019 06:00 340.13 0.00 8.6 4.70
08/14/2019 05:00 340.13 0.00 8.6 4.70
08/14/2019 04:00 340.13 0.00 8.9 4.71
08/14/2019 03:00 340.13 0.00 8.9 4.71
08/14/2019 02:00 340.13 0.00 8.9 4.71
08/14/2019 01:00 340.13 0.00 8.9 4.71
08/14/2019 00:00 340.13 0.00 8.9 4.71
08/13/2019 23:00 340.13 0.00 8.9 4.71
08/13/2019 22:00 340.13 0.00 8.9 4.71
08/13/2019 21:00 340.13 0.00 8.9 4.71
08/13/2019 20:00 340.13 0.00 8.9 4.71
08/13/2019 19:00 340.13 0.00 8.9 4.71
08/13/2019 18:00 340.13 0.00 8.9 4.71
08/13/2019 17:00 340.13 0.00 8.9 4.71
08/13/2019 16:00 340.13 0.00 9.3 4.72
08/13/2019 15:00 340.16 0.00 9.3 4.72
08/13/2019 14:00 340.13 0.00 9.3 4.72
08/13/2019 13:00 340.13 0.00 9.3 4.72
08/13/2019 12:00 340.16 0.00 9.3 4.72
08/13/2019 11:00 340.16 0.00 9.3 4.72
08/13/2019 10:00 340.16 0.00 9.3 4.72
08/13/2019 09:00 340.16 0.00 9.8 4.73
08/13/2019 08:00 340.16 0.00 9.8 4.73
08/13/2019 07:00 340.16 0.00 -- --
08/13/2019 06:00 340.16 0.00 -- --
08/13/2019 05:00 340.16 0.00 9.8 4.73
08/13/2019 04:00 340.16 0.00 9.8 4.73
08/13/2019 03:00 340.16 0.00 9.8 4.73
08/13/2019 02:00 340.16 0.00 9.8 4.73
08/13/2019 01:00 340.16 0.00 9.8 4.73
08/13/2019 00:00 340.16 0.00 9.8 4.73
08/12/2019 23:00 340.16 0.00 9.8 4.73
08/12/2019 22:00 340.16 0.00 9.8 4.73
08/12/2019 21:00 340.16 0.00 9.8 4.73
08/12/2019 20:00 340.16 0.00 10.2 4.74
08/12/2019 19:00 340.16 0.00 10.2 4.74
08/12/2019 18:00 340.16 0.00 10.2 4.74
08/12/2019 17:00 340.16 0.00 10.2 4.74
08/12/2019 16:00 340.16 0.00 10.2 4.74
08/12/2019 15:00 340.19 0.00 10.2 4.74
08/12/2019 14:00 340.19 0.00 10.2 4.74
08/12/2019 13:00 340.19 0.00 10.2 4.74
08/12/2019 12:00 340.19 0.00 10.6 4.75
08/12/2019 11:00 340.19 0.00 10.6 4.75
08/12/2019 10:00 340.19 0.00 10.6 4.75
08/12/2019 09:00 340.19 0.00 11.1 4.76
08/12/2019 08:00 340.19 0.00 11.1 4.76
08/12/2019 07:00 340.19 0.00 11.1 4.76
08/12/2019 06:00 340.19 0.00 11.1 4.76
08/12/2019 05:00 340.19 0.00 11.1 4.76
08/12/2019 04:00 340.19 0.00 11.1 4.76
08/12/2019 03:00 340.19 0.00 11.5 4.77
08/12/2019 02:00 340.19 0.00 11.5 4.77
08/12/2019 01:00 340.22 0.00 11.5 4.77
08/12/2019 00:00 340.22 0.00 11.5 4.77
08/11/2019 23:00 340.22 0.00 11.5 4.77
08/11/2019 22:00 340.22 0.00 -- --
08/11/2019 21:00 340.22 0.00 11.5 4.77
08/11/2019 20:00 340.22 0.00 12.0 4.78
08/11/2019 19:00 340.22 0.00 12.0 4.78
08/11/2019 18:00 340.22 0.00 12.0 4.78
08/11/2019 17:00 340.22 0.00 12.0 4.78
08/11/2019 16:00 340.22 0.00 12.0 4.78
08/11/2019 15:00 340.22 0.00 12.0 4.78
08/11/2019 14:00 340.22 0.00 12.0 4.78
08/11/2019 13:00 340.22 0.00 12.4 4.79
08/11/2019 12:00 340.22 0.00 12.4 4.79
08/11/2019 11:00 340.22 0.00 12.4 4.79
08/11/2019 10:00 340.22 0.00 13.0 4.80
08/11/2019 09:00 340.25 0.00 13.0 4.80
08/11/2019 08:00 340.25 0.00 13.0 4.80
08/11/2019 07:00 340.25 0.00 13.0 4.80
08/11/2019 06:00 340.25 0.00 13.6 4.81
08/11/2019 05:00 340.25 0.00 13.6 4.81
08/11/2019 04:00 340.25 0.00 13.6 4.81
08/11/2019 03:00 340.25 0.00 13.6 4.81
08/11/2019 02:00 340.25 0.00 13.6 4.81
08/11/2019 01:00 340.25 0.00 13.6 4.81
08/11/2019 00:00 340.25 0.00 13.6 4.81
08/10/2019 23:00 340.25 0.00 13.6 4.81
08/10/2019 22:00 340.25 0.00 -- --
08/10/2019 21:00 340.25 0.00 14.2 4.82
08/10/2019 20:00 340.25 0.00 14.2 4.82
08/10/2019 19:00 340.25 0.00 14.2 4.82
08/10/2019 18:00 340.25 0.00 14.2 4.82
08/10/2019 17:00 340.25 0.00 14.2 4.82
08/10/2019 16:00 340.25 0.00 14.2 4.82
08/10/2019 15:00 340.28 0.00 14.2 4.82
08/10/2019 14:00 340.28 0.00 14.8 4.83
08/10/2019 13:00 340.28 0.00 14.8 4.83
08/10/2019 12:00 340.28 0.00 14.8 4.83
08/10/2019 11:00 340.28 0.00 14.8 4.83
08/10/2019 10:00 340.28 0.00 14.8 4.83
08/10/2019 09:00 340.28 0.00 15.4 4.84
08/10/2019 08:00 340.28 0.00 15.4 4.84
08/10/2019 07:00 340.31 0.00 16.1 4.85
08/10/2019 06:00 340.31 0.00 16.1 4.85
08/10/2019 05:00 340.31 0.00 16.1 4.85
08/10/2019 04:00 340.31 0.00 16.1 4.85
08/10/2019 03:00 340.31 0.00 16.1 4.85
08/10/2019 02:00 340.31 0.00 16.1 4.85
08/10/2019 01:00 340.31 0.00 16.1 4.85
08/10/2019 00:00 340.31 0.00 16.7 4.86
08/09/2019 23:00 340.31 0.00 16.1 4.85
08/09/2019 22:00 340.31 0.00 16.7 4.86
08/09/2019 21:00 340.31 0.00 16.1 4.85
08/09/2019 20:00 340.31 0.00 16.7 4.86
08/09/2019 19:00 340.31 0.00 16.7 4.86
08/09/2019 18:00 340.31 0.00 16.7 4.86
08/09/2019 17:00 340.31 0.00 16.7 4.86
08/09/2019 16:00 340.31 0.00 16.1 4.85
08/09/2019 15:00 340.31 0.00 16.7 4.86
08/09/2019 14:00 340.31 0.00 16.7 4.86
08/09/2019 13:00 340.31 0.00 16.7 4.86
08/09/2019 12:00 340.31 0.00 16.7 4.86
08/09/2019 11:00 340.31 0.00 16.7 4.86
08/09/2019 10:00 340.31 0.00 16.7 4.86
08/09/2019 09:00 340.31 0.00 16.7 4.86
08/09/2019 08:00 340.31 0.00 16.7 4.86
08/09/2019 07:00 340.31 0.00 16.7 4.86
08/09/2019 06:00 340.31 0.00 16.7 4.86
08/09/2019 05:00 340.31 0.00 16.7 4.86
08/09/2019 04:00 340.31 0.00 16.7 4.86
08/09/2019 03:00 340.31 0.00 16.7 4.86
08/09/2019 02:00 340.31 0.00 16.7 4.86
08/09/2019 01:00 340.31 0.00 16.7 4.86
08/09/2019 00:00 340.31 0.00 16.7 4.86
08/08/2019 23:00 340.31 0.00 16.7 4.86
08/08/2019 22:00 340.31 0.00 -- --
08/08/2019 21:00 340.31 0.00 16.1 4.85
08/08/2019 20:00 340.31 0.00 16.1 4.85
08/08/2019 19:00 340.31 0.00 16.1 4.85
08/08/2019 18:00 340.28 0.00 15.4 4.84
08/08/2019 17:00 340.31 0.02 15.4 4.84
08/08/2019 16:00 340.28 0.10 14.8 4.83
08/08/2019 15:00 340.25 0.00 14.2 4.82
08/08/2019 14:00 340.25 0.00 14.2 4.82
08/08/2019 13:00 340.25 0.00 14.2 4.82
08/08/2019 12:00 340.25 0.00 13.6 4.81
08/08/2019 11:00 340.25 0.00 13.6 4.81
08/08/2019 10:00 340.25 0.00 13.6 4.81
08/08/2019 09:00 340.25 0.00 13.0 4.80
08/08/2019 08:00 340.25 0.00 13.0 4.80
08/08/2019 07:00 340.22 0.00 12.4 4.79
08/08/2019 06:00 340.22 0.00 12.4 4.79
08/08/2019 05:00 340.22 0.00 12.4 4.79
08/08/2019 04:00 340.22 0.00 12.0 4.78
08/08/2019 03:00 340.22 0.00 12.0 4.78
08/08/2019 02:00 340.22 0.00 11.5 4.77
08/08/2019 01:00 340.19 0.00 11.5 4.77
08/08/2019 00:00 340.19 0.01 11.5 4.77
08/07/2019 23:00 340.19 0.00 11.1 4.76
08/07/2019 22:00 340.19 0.07 -- --
08/07/2019 21:00 340.19 0.00 10.6 4.75
08/07/2019 20:00 340.19 0.03 10.6 4.75
08/07/2019 19:00 340.16 0.15 10.2 4.74
08/07/2019 18:00 340.16 0.03 9.8 4.73
08/07/2019 17:00 340.13 0.23 9.3 4.72
08/07/2019 16:00 340.13 0.00 8.6 4.70
08/07/2019 15:00 340.13 0.00 8.6 4.70
08/07/2019 14:00 340.13 0.01 8.6 4.70
08/07/2019 13:00 340.13 0.01 8.2 4.69
08/07/2019 12:00 340.10 0.16 -- --
08/07/2019 11:00 340.07 0.00 -- --
08/07/2019 10:00 340.07 0.00 7.3 4.66
08/07/2019 09:00 340.07 0.00 7.6 4.67
08/07/2019 08:00 340.07 0.00 7.6 4.67
08/07/2019 07:00 340.07 0.00 7.6 4.67
08/07/2019 06:00 340.07 0.00 7.6 4.67
08/07/2019 05:00 340.10 0.00 7.9 4.68
08/07/2019 04:00 340.07 0.00 7.9 4.68
08/07/2019 03:00 340.10 0.00 7.9 4.68
08/07/2019 02:00 340.10 0.00 7.9 4.68
08/07/2019 01:00 340.10 0.00 7.9 4.68
08/07/2019 00:00 340.10 0.00 7.9 4.68
08/06/2019 23:00 340.10 0.00 7.9 4.68
08/06/2019 22:00 340.10 0.00 -- --
08/06/2019 21:00 340.10 0.00 7.9 4.68
08/06/2019 20:00 340.10 0.00 7.9 4.68
08/06/2019 19:00 340.10 0.00 7.9 4.68
08/06/2019 18:00 340.10 0.00 7.9 4.68
08/06/2019 17:00 340.10 0.00 7.9 4.68
08/06/2019 16:00 340.10 0.00 7.9 4.68
08/06/2019 15:00 340.10 0.00 7.9 4.68
08/06/2019 14:00 340.10 0.00 7.9 4.68
08/06/2019 13:00 340.10 0.00 7.9 4.68
08/06/2019 12:00 340.10 0.00 7.9 4.68
08/06/2019 11:00 340.10 0.00 7.9 4.68
08/06/2019 10:00 340.10 0.00 7.9 4.68
08/06/2019 09:00 340.10 0.00 8.2 4.69
08/06/2019 08:00 340.10 0.00 8.2 4.69
08/06/2019 07:00 340.10 0.00 8.2 4.69
08/06/2019 06:00 340.10 0.00 8.6 4.70
08/06/2019 05:00 340.10 0.00 8.6 4.70
08/06/2019 04:00 340.10 0.00 8.6 4.70
08/06/2019 03:00 340.10 0.00 8.6 4.70
08/06/2019 02:00 340.13 0.00 8.6 4.70
08/06/2019 01:00 340.13 0.00 8.6 4.70
08/06/2019 00:00 340.13 0.00 8.6 4.70
08/05/2019 23:00 340.13 0.00 8.6 4.70
08/05/2019 22:00 340.13 0.00 8.6 4.70
08/05/2019 21:00 340.13 0.00 8.6 4.70
08/05/2019 20:00 340.13 0.00 8.6 4.70
08/05/2019 19:00 -- -- -- --
08/05/2019 18:00 -- -- -- --
08/05/2019 17:00 -- -- -- --